»·PEaware :: TEXAN21 KRND-KRND

TEXAN21 :: KRND-KRND

FLIGHT INFORMATION

Flight Status: Arrived
Operator: Unknown
More flights by this operator :: More flights under this callsign
Pilot: Indie I. (23342)
Aircraft: BEECH AIRCRAFT T-6A TEXAN
(TEX2)
More flights by this aircraft type
Origin: KRND Randolph AFB
United States
Destination: KRND Randolph AFB
United States
More flights between these airports :: More routes between these airports
Route: KRND KRND
File this flight plan on PilotEdge
Remarks: Patterns 33L
Altitude:
(Current/Filed)
1,800ft
Speed:
(Current/Filed)
200kts
Departed: 17-Aug-20 11:09 AM
Arrived: 17-Aug-20 11:43 AM
Distance/Time
Traveled:
1nm/0:33
Distance/Time
To Go:
Arrived

Flight Plot

Page will automatically refresh every two minutes.

Flight plan parsing failed; only flown route is shown


Map Options




Map Legend


Flown Route
Filed Route
Departure Airport
Arrival Airport
Navaid (VOR, NDB)
Fix

Horizontal Profiles

Position Reports

Time Latitude Longitude Heading Altitude Ground
Speed
17-Aug-20 11:01 29.515589 -98.280411 351 765ft 12kts
17-Aug-20 11:02 29.515526 -98.279056 300 765ft 0kts
17-Aug-20 11:03 29.515527 -98.279059 300 765ft 0kts
17-Aug-20 11:04 29.515528 -98.279061 300 765ft 0kts
17-Aug-20 11:05 29.515530 -98.279065 301 765ft 0kts
17-Aug-20 11:06 29.515533 -98.279069 303 765ft 0kts
17-Aug-20 11:07 29.515590 -98.279159 303 765ft 11kts
17-Aug-20 11:08 29.517622 -98.281747 330 766ft 82kts
17-Aug-20 11:09 29.527242 -98.309464 158 1744ft 218kts
17-Aug-20 11:10 29.491414 -98.276671 97 1544ft 149kts
17-Aug-20 11:11 29.523386 -98.285593 330 1182ft 169kts
17-Aug-20 11:12 29.512058 -98.295769 148 1765ft 195kts
17-Aug-20 11:13 29.500839 -98.270181 332 1037ft 117kts
17-Aug-20 11:14 29.524229 -98.286054 329 868ft 114kts
17-Aug-20 11:15 29.533007 -98.330687 227 1922ft 225kts
17-Aug-20 11:16 29.477816 -98.300651 148 1880ft 234kts
17-Aug-20 11:17 29.502652 -98.271521 329 1859ft 215kts
17-Aug-20 11:18 29.503440 -98.288346 151 1716ft 138kts
17-Aug-20 11:19 29.510947 -98.277373 329 920ft 116kts
17-Aug-20 11:20 29.540546 -98.296850 330 1443ft 193kts
17-Aug-20 11:21 29.508038 -98.322114 148 1886ft 230kts
17-Aug-20 11:22 29.455215 -98.285498 147 1726ft 201kts
17-Aug-20 11:23 29.468139 -98.250818 354 1309ft 128kts
17-Aug-20 11:24 29.499598 -98.269735 330 1181ft 140kts
17-Aug-20 11:25 29.524403 -98.286170 330 981ft 130kts
17-Aug-20 11:26 29.528376 -98.328269 198 1996ft 227kts
17-Aug-20 11:27 29.474604 -98.298404 147 1841ft 218kts
17-Aug-20 11:28 29.455721 -98.253157 43 1244ft 153kts
17-Aug-20 11:29 29.488590 -98.262605 330 1344ft 117kts
17-Aug-20 11:30 29.514716 -98.279978 329 804ft 100kts
17-Aug-20 11:31 29.546318 -98.303800 284 1490ft 214kts
17-Aug-20 11:32 29.507197 -98.321624 148 1962ft 208kts
17-Aug-20 11:33 29.476003 -98.278052 71 1979ft 203kts
17-Aug-20 11:34 29.521376 -98.284558 323 1685ft 215kts
17-Aug-20 11:35 29.493701 -98.281170 150 1368ft 119kts
17-Aug-20 11:36 29.480682 -98.300992 328 2586ft 226kts
17-Aug-20 11:37 29.494533 -98.349275 129 1939ft 195kts
17-Aug-20 11:38 29.469291 -98.291148 106 1660ft 218kts
17-Aug-20 11:39 29.508602 -98.275632 328 1697ft 211kts
17-Aug-20 11:40 29.510477 -98.290277 151 1546ft 121kts
17-Aug-20 11:41 29.506665 -98.274357 329 911ft 122kts
17-Aug-20 11:42 29.522330 -98.284064 51 765ft 14kts
17-Aug-20 11:43 29.519899 -98.281155 148 765ft 37kts
17-Aug-20 11:44 29.515580 -98.278531 226 765ft 0kts
17-Aug-20 11:45 29.515618 -98.278918 301 765ft 0kts
17-Aug-20 11:46 29.515619 -98.278920 301 765ft 0kts
17-Aug-20 11:47 29.515621 -98.278923 301 765ft 0kts
17-Aug-20 11:48 29.515622 -98.278925 301 765ft 0kts
17-Aug-20 11:49 29.515623 -98.278928 301 765ft 0kts
17-Aug-20 11:50 29.515625 -98.278930 301 765ft 0kts
17-Aug-20 11:51 29.515626 -98.278933 301 765ft 0kts
17-Aug-20 11:52 29.515627 -98.278936 301 765ft 0kts
17-Aug-20 11:53 29.515629 -98.278938 301 765ft 0kts
17-Aug-20 11:54 29.515630 -98.278941 301 765ft 0kts
17-Aug-20 11:55 29.515632 -98.278943 301 765ft 0kts
17-Aug-20 11:56 29.515633 -98.278946 301 765ft 0kts

Navigation Log

Ident Type
Flight plan parsing failed, navigation log unavailable